createdAt,value
2019-04-21T00:01:59.655Z,77.90
2019-04-21T00:04:43.279Z,62.30
2019-04-21T00:07:25.091Z,56.17
2019-04-21T00:10:02.573Z,61.83
2019-04-21T00:12:28.325Z,63.37
2019-04-21T00:14:57.909Z,61.67
2019-04-21T00:17:23.115Z,63.27
2019-04-21T00:20:09.124Z,63.90
2019-04-21T00:22:43.138Z,56.80
2019-04-21T00:25:20.997Z,52.70
2019-04-21T00:27:50.173Z,56.67
2019-04-21T00:30:38.252Z,57.47
2019-04-21T00:32:53.967Z,56.57
2019-04-21T00:35:21.081Z,55.60
2019-04-21T00:38:13.076Z,59.83
2019-04-21T00:40:52.120Z,73.17
2019-04-21T00:43:15.164Z,75.80
2019-04-21T00:45:44.914Z,64.13
2019-04-21T00:48:29.841Z,64.67
2019-04-21T00:51:21.158Z,72.60
2019-04-21T00:53:51.648Z,68.27
2019-04-21T00:56:21.293Z,70.87
2019-04-21T00:58:56.078Z,58.00
2019-04-21T01:01:24.972Z,51.73
2019-04-21T01:04:02.204Z,54.70
2019-04-21T01:06:38.143Z,49.73
2019-04-21T01:09:02.664Z,53.47
2019-04-21T01:11:44.244Z,50.73
2019-04-21T01:14:25.882Z,46.33
2019-04-21T01:16:51.385Z,48.63
2019-04-21T01:19:17.262Z,47.70
2019-04-21T01:21:34.400Z,45.53
2019-04-21T01:24:13.385Z,39.23
2019-04-21T01:26:52.518Z,38.07
2019-04-21T01:29:39.028Z,38.73
2019-04-21T01:32:14.603Z,39.03
2019-04-21T01:34:47.063Z,36.03
2019-04-21T01:37:14.548Z,28.17
2019-04-21T01:39:58.475Z,31.47
2019-04-21T01:44:58.272Z,21.87
2019-04-21T01:47:26.300Z,17.47
2019-04-21T01:49:56.554Z,20.57
2019-04-21T01:52:47.334Z,28.30
2019-04-21T01:55:20.268Z,30.73
2019-04-21T01:58:09.740Z,26.30
2019-04-21T02:01:10.215Z,22.50
2019-04-21T02:03:54.417Z,18.50
2019-04-21T02:06:22.896Z,18.87
2019-04-21T02:08:48.800Z,16.13
2019-04-21T02:11:30.025Z,12.57
2019-04-21T02:14:31.136Z,14.27
2019-04-21T02:16:34.307Z,11.93
2019-04-21T02:19:08.225Z,12.63
2019-04-21T02:21:36.974Z,15.07
2019-04-21T02:24:23.862Z,15.77
2019-04-21T02:26:54.104Z,18.50
2019-04-21T02:29:26.703Z,18.53
2019-04-21T02:32:10.576Z,15.20
2019-04-21T02:34:49.036Z,14.87
2019-04-21T02:39:51.389Z,11.07
2019-04-21T02:42:18.687Z,10.47
2019-04-21T02:45:06.652Z,10.83
2019-04-21T02:52:46.294Z,12.43
2019-04-21T02:55:06.352Z,10.20
2019-04-21T03:00:40.581Z,12.13
2019-04-21T03:03:22.949Z,11.53
2019-04-21T03:06:04.006Z,12.37
2019-04-21T03:08:43.855Z,10.07
2019-04-21T03:13:44.528Z,15.30
2019-04-21T03:18:50.389Z,14.33
2019-04-21T03:24:05.417Z,13.67
2019-04-21T03:26:36.380Z,14.63
2019-04-21T03:29:03.656Z,17.70
2019-04-21T03:34:41.067Z,24.93
2019-04-21T03:39:11.333Z,21.43
2019-04-21T03:44:24.703Z,17.70
2019-04-21T03:47:02.137Z,27.90
2019-04-21T03:52:19.855Z,25.40
2019-04-21T03:54:49.158Z,22.07
2019-04-21T03:57:17.799Z,20.63
2019-04-21T03:59:47.356Z,24.30
2019-04-21T04:02:47.220Z,24.87
2019-04-21T04:05:10.970Z,24.50
2019-04-21T04:07:59.080Z,21.53
2019-04-21T04:10:22.904Z,20.97
2019-04-21T04:12:57.813Z,21.07
2019-04-21T04:15:39.596Z,24.50
2019-04-21T04:18:08.755Z,22.83
2019-04-21T04:20:43.816Z,22.40
2019-04-21T04:23:09.804Z,21.47
2019-04-21T04:25:49.431Z,21.70
2019-04-21T04:28:23.029Z,21.50
2019-04-21T04:30:52.058Z,21.47
2019-04-21T04:33:38.411Z,20.50
2019-04-21T04:36:31.111Z,21.90
2019-04-21T04:38:39.558Z,21.67
2019-04-21T04:41:28.499Z,21.97
2019-04-21T04:44:00.937Z,26.13
2019-04-21T04:46:26.726Z,25.77
2019-04-21T04:49:01.753Z,26.13
2019-04-21T04:51:48.309Z,31.93
2019-04-21T04:54:32.437Z,36.57
2019-04-21T04:56:38.360Z,38.30
2019-04-21T05:02:08.698Z,19.07
2019-04-21T05:04:30.259Z,15.70
2019-04-21T05:06:59.946Z,13.23
2019-04-21T05:12:03.533Z,13.73
2019-04-21T05:14:39.037Z,12.17
2019-04-21T05:17:14.116Z,13.43
2019-04-21T05:19:53.876Z,13.03
2019-04-21T05:24:44.236Z,16.40
2019-04-21T05:27:32.086Z,20.30
2019-04-21T05:30:17.598Z,22.73
2019-04-21T05:32:58.406Z,19.50
2019-04-21T05:35:45.207Z,18.17
2019-04-21T05:38:21.422Z,17.90
2019-04-21T05:40:48.357Z,18.33
2019-04-21T05:43:32.694Z,32.73
2019-04-21T05:46:06.018Z,22.30
2019-04-21T05:48:39.802Z,39.13
2019-04-21T05:51:14.886Z,15.87
2019-04-21T05:53:48.052Z,13.53
2019-04-21T05:56:22.946Z,14.50
2019-04-21T05:59:00.174Z,14.17
2019-04-21T06:01:44.572Z,13.43
2019-04-21T06:04:03.925Z,12.80
2019-04-21T06:06:43.577Z,13.23
2019-04-21T06:09:14.605Z,17.20
2019-04-21T06:11:45.914Z,16.93
2019-04-21T06:14:21.751Z,13.13
2019-04-21T06:16:57.000Z,12.90
2019-04-21T06:19:30.966Z,16.50
2019-04-21T06:21:57.524Z,13.63
2019-04-21T06:24:43.399Z,15.47
2019-04-21T06:27:11.581Z,16.67
2019-04-21T06:29:46.738Z,14.77
2019-04-21T06:35:07.300Z,12.43
2019-04-21T06:42:34.225Z,10.60
2019-04-21T06:45:27.564Z,10.83
2019-04-21T06:47:42.326Z,11.00
2019-04-21T06:50:19.056Z,10.60
2019-04-21T06:53:00.790Z,30.93
2019-04-21T06:55:20.377Z,9.90
2019-04-21T06:57:51.615Z,9.17
2019-04-21T07:00:34.801Z,8.67
2019-04-21T07:03:17.106Z,9.30
2019-04-21T07:05:42.473Z,7.77
2019-04-21T07:08:21.935Z,12.80
2019-04-21T07:10:45.084Z,9.03
2019-04-21T07:13:15.376Z,9.10
2019-04-21T07:15:53.297Z,9.87
2019-04-21T07:18:31.082Z,11.30
2019-04-21T07:21:00.077Z,11.23
2019-04-21T07:23:38.641Z,10.43
2019-04-21T07:26:08.840Z,9.90
2019-04-21T07:28:46.336Z,30.33
2019-04-21T07:31:31.709Z,10.50
2019-04-21T07:36:30.940Z,8.93
2019-04-21T07:38:49.889Z,9.10
2019-04-21T07:41:18.604Z,9.03
2019-04-21T07:43:55.675Z,9.30
2019-04-21T07:46:31.370Z,9.10
2019-04-21T07:49:36.999Z,9.97
2019-04-21T07:52:33.537Z,9.30
2019-04-21T07:55:16.732Z,11.03
2019-04-21T07:57:33.078Z,7.87
2019-04-21T08:00:20.586Z,9.47
2019-04-21T08:02:40.433Z,9.10
2019-04-21T08:07:52.004Z,8.30
2019-04-21T08:10:23.243Z,33.73
2019-04-21T08:12:54.459Z,10.07
2019-04-21T08:15:38.645Z,7.87
2019-04-21T08:18:03.701Z,7.83
2019-04-21T08:20:36.302Z,15.57
2019-04-21T08:23:13.238Z,17.23
2019-04-21T08:25:53.012Z,10.90
2019-04-21T08:28:11.916Z,7.80
2019-04-21T08:30:47.791Z,7.07
2019-04-21T08:33:33.754Z,7.13
2019-04-21T08:36:13.975Z,8.20
2019-04-21T08:38:34.451Z,7.33
2019-04-21T08:46:13.727Z,8.27
2019-04-21T08:48:54.259Z,7.57
2019-04-21T08:51:50.424Z,7.20
2019-04-21T08:53:53.489Z,7.90
2019-04-21T08:56:52.635Z,8.73
2019-04-21T08:59:51.825Z,8.30
2019-04-21T09:02:40.284Z,7.00
2019-04-21T09:05:15.438Z,7.83
2019-04-21T09:07:47.587Z,9.83
2019-04-21T09:10:17.657Z,10.87
2019-04-21T09:12:49.059Z,7.87
2019-04-21T09:15:19.093Z,8.87
2019-04-21T09:17:48.380Z,8.00
2019-04-21T09:20:32.702Z,8.07
2019-04-21T09:23:06.401Z,8.03
2019-04-21T09:25:40.573Z,8.70
2019-04-21T09:28:12.604Z,8.57
2019-04-21T09:30:26.391Z,8.47
2019-04-21T09:33:00.198Z,8.73
2019-04-21T09:35:31.903Z,7.30
2019-04-21T09:38:17.175Z,6.63
2019-04-21T09:40:44.122Z,7.50
2019-04-21T09:43:13.435Z,8.10
2019-04-21T09:45:45.311Z,8.83
2019-04-21T09:48:20.531Z,7.73
2019-04-21T09:50:50.817Z,8.03
2019-04-21T09:53:29.469Z,6.87
2019-04-21T09:56:01.040Z,7.47
2019-04-21T09:58:37.921Z,7.37
2019-04-21T10:01:12.107Z,6.60
2019-04-21T10:03:43.416Z,5.90
2019-04-21T10:06:11.247Z,6.03
2019-04-21T10:08:44.653Z,5.77
2019-04-21T10:11:16.566Z,10.63
2019-04-21T10:13:48.803Z,6.17
2019-04-21T10:16:42.893Z,7.10
2019-04-21T10:19:15.279Z,8.23
2019-04-21T10:21:47.803Z,5.83
2019-04-21T10:24:20.172Z,5.90
2019-04-21T10:26:53.370Z,5.17
2019-04-21T10:29:29.442Z,5.40
2019-04-21T10:31:59.886Z,4.83
2019-04-21T10:34:32.743Z,5.30
2019-04-21T10:37:04.959Z,5.87
2019-04-21T10:39:37.785Z,5.87
2019-04-21T10:42:11.194Z,5.73
2019-04-21T10:44:43.282Z,5.60
2019-04-21T10:47:16.459Z,5.47
2019-04-21T10:49:48.714Z,5.17
2019-04-21T10:52:49.079Z,7.27
2019-04-21T10:55:41.750Z,4.97
2019-04-21T10:58:20.372Z,4.87
2019-04-21T11:01:00.051Z,5.87
2019-04-21T11:03:40.521Z,6.10
2019-04-21T11:06:14.749Z,5.30
2019-04-21T11:08:50.462Z,5.63
2019-04-21T11:11:21.786Z,5.78
2019-04-21T11:13:54.887Z,5.10
2019-04-21T11:16:27.279Z,5.97
2019-04-21T11:18:59.988Z,5.45
2019-04-21T11:21:31.958Z,5.42
2019-04-21T11:24:04.166Z,5.90
2019-04-21T11:26:36.442Z,7.17
2019-04-21T11:29:08.609Z,5.53
2019-04-21T11:31:41.083Z,6.20
2019-04-21T11:34:13.558Z,6.40
2019-04-21T11:36:45.928Z,6.37
2019-04-21T11:39:33.530Z,6.53
2019-04-21T11:41:59.653Z,9.28
2019-04-21T11:44:33.029Z,6.20
2019-04-21T11:47:08.308Z,6.58
2019-04-21T11:49:41.424Z,5.65
2019-04-21T11:52:13.458Z,6.30
2019-04-21T11:54:45.228Z,5.90
2019-04-21T11:57:22.707Z,6.40
2019-04-21T11:59:51.412Z,7.65
2019-04-21T12:02:23.724Z,5.80
2019-04-21T12:04:55.565Z,6.20
2019-04-21T12:07:27.626Z,5.92
2019-04-21T12:09:59.949Z,7.00
2019-04-21T12:12:33.490Z,6.00
2019-04-21T12:15:06.113Z,5.65
2019-04-21T12:17:39.490Z,5.45
2019-04-21T12:20:12.737Z,6.40
2019-04-21T12:22:45.344Z,6.72
2019-04-21T12:25:18.852Z,6.92
2019-04-21T12:27:51.987Z,6.60
2019-04-21T12:30:25.047Z,6.00
2019-04-21T12:33:22.349Z,5.60
2019-04-21T12:35:55.659Z,6.43
2019-04-21T12:38:36.402Z,5.50
2019-04-21T12:41:02.327Z,5.03
2019-04-21T12:43:35.263Z,5.83
2019-04-21T12:46:07.676Z,6.67
2019-04-21T12:48:40.022Z,7.50
2019-04-21T12:51:12.251Z,5.55
2019-04-21T12:53:45.580Z,6.17
2019-04-21T12:56:17.769Z,6.10
2019-04-21T12:58:49.622Z,6.20
2019-04-21T13:01:21.413Z,8.25
2019-04-21T13:03:53.316Z,6.85
2019-04-21T13:06:25.500Z,6.30
2019-04-21T13:09:03.369Z,6.53
2019-04-21T13:11:31.044Z,6.63
2019-04-21T13:14:04.047Z,5.87
2019-04-21T13:16:37.089Z,6.57
2019-04-21T13:19:09.432Z,7.50
2019-04-21T13:21:42.441Z,6.80
2019-04-21T13:24:15.910Z,6.90
2019-04-21T13:26:53.656Z,7.47
2019-04-21T13:29:21.390Z,5.53
2019-04-21T13:31:54.277Z,5.70
2019-04-21T13:34:26.445Z,6.33
2019-04-21T13:36:59.306Z,5.70
2019-04-21T13:40:13.128Z,6.63
2019-04-21T13:42:34.183Z,6.80
2019-04-21T13:45:02.426Z,12.30
2019-04-21T13:47:34.654Z,5.30
2019-04-21T13:50:08.732Z,5.57
2019-04-21T13:52:40.905Z,5.23
2019-04-21T13:55:14.139Z,4.87
2019-04-21T13:57:46.488Z,9.80
2019-04-21T14:00:19.409Z,5.83
2019-04-21T14:02:52.487Z,5.57
2019-04-21T14:05:24.594Z,6.15
2019-04-21T14:07:57.930Z,5.05
2019-04-21T14:10:31.350Z,5.90
2019-04-21T14:13:04.705Z,5.67
2019-04-21T14:15:37.776Z,7.10
2019-04-21T14:18:10.899Z,6.85
2019-04-21T14:20:42.991Z,5.47
2019-04-21T14:23:24.336Z,5.40
2019-04-21T14:25:48.435Z,8.93
2019-04-21T14:28:20.236Z,6.05
2019-04-21T14:30:52.533Z,5.55
2019-04-21T14:33:25.640Z,4.75
2019-04-21T14:35:58.896Z,4.65
2019-04-21T14:38:32.288Z,4.85
2019-04-21T14:41:04.106Z,5.90
2019-04-21T14:43:36.244Z,4.67
2019-04-21T14:46:21.668Z,5.00
2019-04-21T14:49:17.490Z,5.15
2019-04-21T14:52:11.223Z,5.47
2019-04-21T14:54:54.547Z,4.20
2019-04-21T14:57:27.353Z,4.20
2019-04-21T15:00:00.603Z,4.78
2019-04-21T15:02:33.971Z,3.98
2019-04-21T15:05:07.165Z,4.60
2019-04-21T15:07:39.352Z,4.28
2019-04-21T15:10:17.930Z,10.18
2019-04-21T15:12:45.645Z,11.40
2019-04-21T15:15:18.071Z,5.35
2019-04-21T15:17:50.021Z,28.47
2019-04-21T15:20:23.403Z,8.03
2019-04-21T15:22:56.555Z,15.88
2019-04-21T15:25:28.432Z,16.93
2019-04-21T15:28:01.190Z,10.35
2019-04-21T15:30:34.320Z,7.40
2019-04-21T15:33:06.482Z,6.22
2019-04-21T15:35:39.091Z,7.62
2019-04-21T15:38:11.957Z,4.53
2019-04-21T15:40:50.578Z,6.03
2019-04-21T15:43:18.269Z,6.47
2019-04-21T15:45:50.762Z,5.47
2019-04-21T15:48:23.971Z,4.53
2019-04-21T15:50:56.761Z,4.87
2019-04-21T15:53:31.868Z,8.83
2019-04-21T15:56:11.028Z,6.78
2019-04-21T15:59:00.989Z,5.08
2019-04-21T16:01:43.928Z,6.50
2019-04-21T16:04:16.820Z,4.35
2019-04-21T16:06:49.894Z,7.20
2019-04-21T16:09:25.276Z,10.00
2019-04-21T16:11:55.797Z,7.75
2019-04-21T16:14:29.028Z,7.37
2019-04-21T16:17:01.218Z,10.15
2019-04-21T16:19:34.177Z,9.53
2019-04-21T16:22:06.449Z,7.55
2019-04-21T16:24:39.871Z,8.75
2019-04-21T16:27:12.678Z,9.08
2019-04-21T16:29:45.786Z,4.60
2019-04-21T16:32:19.779Z,4.97
2019-04-21T16:34:59.237Z,3.80
2019-04-21T16:37:25.697Z,6.03
2019-04-21T16:39:57.517Z,4.42
2019-04-21T16:42:30.037Z,4.90
2019-04-21T16:45:03.167Z,5.53
2019-04-21T16:47:35.878Z,4.20
2019-04-21T16:50:09.898Z,7.03
2019-04-21T16:52:50.002Z,5.33
2019-04-21T16:55:37.072Z,6.08
2019-04-21T16:58:43.037Z,5.42
2019-04-21T17:01:29.222Z,4.85
2019-04-21T17:04:00.474Z,5.25
2019-04-21T17:06:33.227Z,4.60
2019-04-21T17:09:06.726Z,4.60
2019-04-21T17:11:40.124Z,4.75
2019-04-21T17:14:33.124Z,5.25
2019-04-21T17:17:09.301Z,5.00
2019-04-21T17:19:27.112Z,4.72
2019-04-21T17:21:53.113Z,5.22
2019-04-21T17:24:26.447Z,6.58
2019-04-21T17:26:59.567Z,6.00
2019-04-21T17:29:32.507Z,6.92
2019-04-21T17:32:07.760Z,6.85
2019-04-21T17:34:41.300Z,7.23
2019-04-21T17:37:13.135Z,9.25
2019-04-21T17:39:45.113Z,13.48
2019-04-21T17:42:26.476Z,17.32
2019-04-21T17:44:51.111Z,17.40
2019-04-21T17:47:34.121Z,18.20
2019-04-21T17:50:15.686Z,32.80
2019-04-21T17:52:59.043Z,26.20
2019-04-21T17:55:31.342Z,20.03
2019-04-21T17:58:16.283Z,18.20
2019-04-21T18:03:37.463Z,13.70
2019-04-21T18:05:59.603Z,26.30
2019-04-21T18:08:38.574Z,11.40
2019-04-21T18:11:01.861Z,18.17
2019-04-21T18:13:26.739Z,28.93
2019-04-21T18:16:10.733Z,27.00
2019-04-21T18:18:32.959Z,25.13
2019-04-21T18:21:12.426Z,18.50
2019-04-21T18:23:57.407Z,16.17
2019-04-21T18:26:30.352Z,15.83
2019-04-21T18:28:57.174Z,29.07
2019-04-21T18:31:33.920Z,26.73
2019-04-21T18:34:30.350Z,20.23
2019-04-21T18:37:05.476Z,42.63
2019-04-21T18:40:00.008Z,44.30
2019-04-21T18:42:55.077Z,101.23
2019-04-21T18:45:56.831Z,58.40
2019-04-21T18:48:28.183Z,58.57
2019-04-21T18:51:13.907Z,52.47
2019-04-21T18:54:14.900Z,49.07
2019-04-21T18:56:31.622Z,50.30
2019-04-21T18:59:04.431Z,53.97
2019-04-21T19:01:38.448Z,47.97
2019-04-21T19:04:15.499Z,46.70
2019-04-21T19:07:02.602Z,56.27
2019-04-21T19:09:56.800Z,131.30
2019-04-21T19:12:16.784Z,34.23
2019-04-21T19:14:40.092Z,84.50
2019-04-21T19:18:11.179Z,78.30
2019-04-21T19:19:54.346Z,67.37
2019-04-21T19:22:28.125Z,51.20
2019-04-21T19:24:59.490Z,46.53
2019-04-21T19:27:31.074Z,47.40
2019-04-21T19:30:13.573Z,104.93
2019-04-21T19:32:33.593Z,36.37
2019-04-21T19:34:59.879Z,30.47
2019-04-21T19:37:38.854Z,21.30
2019-04-21T19:40:14.174Z,13.50
2019-04-21T19:42:46.314Z,14.50
2019-04-21T19:45:22.470Z,14.40
2019-04-21T19:48:03.944Z,17.20
2019-04-21T19:50:40.775Z,16.27
2019-04-21T19:53:03.397Z,18.50
2019-04-21T19:55:25.848Z,19.30
2019-04-21T19:57:58.890Z,22.03
2019-04-21T20:00:31.009Z,19.33
2019-04-21T20:03:06.216Z,18.70
2019-04-21T20:05:45.337Z,19.03
2019-04-21T20:08:31.945Z,13.87
2019-04-21T20:11:03.919Z,13.50
2019-04-21T20:16:16.181Z,15.43
2019-04-21T20:18:36.853Z,15.60
2019-04-21T20:21:01.884Z,19.03
2019-04-21T20:23:35.945Z,16.90
2019-04-21T20:26:09.938Z,15.07
2019-04-21T20:28:48.861Z,17.87
2019-04-21T20:31:31.584Z,16.63
2019-04-21T20:34:13.482Z,16.93
2019-04-21T20:36:42.898Z,19.07
2019-04-21T20:39:05.805Z,17.87
2019-04-21T20:41:42.014Z,12.50
2019-04-21T20:44:21.587Z,13.57
2019-04-21T20:46:55.448Z,10.17
2019-04-21T20:49:23.161Z,8.90
2019-04-21T20:52:07.154Z,6.67
2019-04-21T20:54:37.772Z,8.27
2019-04-21T20:57:24.175Z,7.00
2019-04-21T20:59:38.929Z,7.07
2019-04-21T21:02:17.658Z,6.93
2019-04-21T21:04:43.439Z,7.03
2019-04-21T21:07:36.391Z,6.73
2019-04-21T21:10:00.147Z,7.00
2019-04-21T21:12:37.139Z,6.97
2019-04-21T21:14:57.548Z,6.17
2019-04-21T21:17:49.920Z,6.47
2019-04-21T21:20:16.604Z,6.80
2019-04-21T21:22:42.359Z,6.70
2019-04-21T21:25:25.565Z,6.70
2019-04-21T21:27:46.747Z,7.50
2019-04-21T21:30:23.879Z,6.10
2019-04-21T21:33:04.561Z,6.60
2019-04-21T21:35:29.590Z,7.03
2019-04-21T21:38:06.702Z,6.80
2019-04-21T21:40:40.968Z,6.33
2019-04-21T21:42:57.371Z,5.87
2019-04-21T21:45:34.860Z,5.73
2019-04-21T21:48:18.646Z,5.27
2019-04-21T21:50:45.903Z,4.97
2019-04-21T21:53:16.180Z,3.90
2019-04-21T21:55:44.699Z,4.23
2019-04-21T21:58:25.276Z,3.60
2019-04-21T22:00:56.993Z,4.43
2019-04-21T22:03:31.870Z,5.00
2019-04-21T22:06:07.285Z,6.67
2019-04-21T22:08:34.232Z,6.03
2019-04-21T22:11:07.237Z,5.83
2019-04-21T22:13:47.669Z,6.40
2019-04-21T22:16:15.689Z,8.87
2019-04-21T22:19:07.940Z,8.40
2019-04-21T22:21:41.286Z,7.73
2019-04-21T22:24:00.518Z,6.03
2019-04-21T22:26:27.514Z,5.70
2019-04-21T22:28:59.543Z,6.10
2019-04-21T22:31:38.914Z,7.10
2019-04-21T22:34:12.241Z,6.33
2019-04-21T22:36:48.474Z,7.03
2019-04-21T22:39:35.595Z,23.63
2019-04-21T22:42:00.976Z,10.40
2019-04-21T22:44:22.865Z,7.47
2019-04-21T22:47:04.215Z,6.57
2019-04-21T22:49:28.641Z,6.33
2019-04-21T22:52:03.947Z,12.93
2019-04-21T22:54:39.683Z,7.10
2019-04-21T22:57:16.633Z,5.70
2019-04-21T22:59:46.343Z,5.70
2019-04-21T23:02:23.738Z,5.60
2019-04-21T23:04:56.241Z,5.40
2019-04-21T23:07:26.680Z,5.70
2019-04-21T23:09:59.119Z,6.23
2019-04-21T23:12:36.247Z,6.07
2019-04-21T23:15:11.789Z,7.10
2019-04-21T23:18:01.619Z,11.80
2019-04-21T23:20:32.787Z,8.43
2019-04-21T23:23:08.340Z,8.10
2019-04-21T23:25:36.608Z,8.10
2019-04-21T23:28:09.485Z,7.77
2019-04-21T23:30:50.285Z,8.57
2019-04-21T23:33:06.036Z,8.17
2019-04-21T23:35:38.736Z,7.23
2019-04-21T23:38:08.665Z,7.17
2019-04-21T23:40:48.811Z,7.67
2019-04-21T23:43:19.239Z,8.33
2019-04-21T23:45:48.711Z,8.00
2019-04-21T23:48:32.510Z,8.40
2019-04-21T23:51:10.923Z,10.70
2019-04-21T23:53:29.247Z,10.23
2019-04-21T23:56:01.309Z,9.00
2019-04-21T23:58:36.277Z,9.03
